createdAt,value
2018-04-29T00:02:24.497Z,75.50
2018-04-29T00:04:52.109Z,75.30
2018-04-29T00:07:20.581Z,75.50
2018-04-29T00:09:48.222Z,75.50
2018-04-29T00:12:15.875Z,75.60
2018-04-29T00:14:43.506Z,75.70
2018-04-29T00:17:11.170Z,75.60
2018-04-29T00:19:38.989Z,75.40
2018-04-29T00:22:06.738Z,75.30
2018-04-29T00:24:35.134Z,75.60
2018-04-29T00:27:03.578Z,75.80
2018-04-29T00:29:31.458Z,75.60
2018-04-29T00:31:59.144Z,75.80
2018-04-29T00:34:26.971Z,75.70
2018-04-29T00:36:54.598Z,75.80
2018-04-29T00:39:23.031Z,75.60
2018-04-29T00:41:50.659Z,75.50
2018-04-29T00:44:18.321Z,75.10
2018-04-29T00:46:45.965Z,75.10
2018-04-29T00:49:14.398Z,75.40
2018-04-29T00:51:53.959Z,75.40
2018-04-29T00:54:21.621Z,75.80
2018-04-29T00:56:49.242Z,76.30
2018-04-29T00:59:16.897Z,76.70
2018-04-29T01:01:44.522Z,77.10
2018-04-29T01:04:12.203Z,77.10
2018-04-29T01:06:39.864Z,77.30
2018-04-29T01:09:07.685Z,77.60
2018-04-29T01:11:36.081Z,78.00
2018-04-29T01:14:04.305Z,78.00
2018-04-29T01:16:32.360Z,78.20
2018-04-29T01:19:00.012Z,79.00
2018-04-29T01:21:27.658Z,78.40
2018-04-29T01:23:55.289Z,78.40
2018-04-29T01:26:22.954Z,78.60
2018-04-29T01:28:50.588Z,78.60
2018-04-29T01:31:18.262Z,78.60
2018-04-29T01:33:46.046Z,78.60
2018-04-29T01:36:13.962Z,78.60
2018-04-29T01:38:41.657Z,78.70
2018-04-29T01:41:09.306Z,79.10
2018-04-29T01:43:37.732Z,79.30
2018-04-29T01:46:05.375Z,79.30
2018-04-29T01:48:33.129Z,79.50
2018-04-29T01:51:00.789Z,79.60
2018-04-29T01:53:28.425Z,79.70
2018-04-29T01:55:56.112Z,79.70
2018-04-29T01:58:23.721Z,79.60
2018-04-29T02:00:51.370Z,79.50
2018-04-29T02:03:18.989Z,80.40
2018-04-29T02:05:46.632Z,79.60
2018-04-29T02:11:26.553Z,80.10
2018-04-29T02:13:54.197Z,80.10
2018-04-29T02:16:21.825Z,80.30
2018-04-29T02:18:49.480Z,80.70
2018-04-29T02:21:17.387Z,80.60
2018-04-29T02:23:45.838Z,80.60
2018-04-29T02:26:13.454Z,80.70
2018-04-29T02:28:42.834Z,80.70
2018-04-29T02:31:10.501Z,81.10
2018-04-29T02:33:38.170Z,81.30
2018-04-29T02:36:05.841Z,81.30
2018-04-29T02:38:33.450Z,81.40
2018-04-29T02:41:01.103Z,81.50
2018-04-29T02:43:28.742Z,81.60
2018-04-29T02:45:57.199Z,81.80
2018-04-29T02:48:24.836Z,81.90
2018-04-29T02:50:53.286Z,81.90
2018-04-29T02:53:20.939Z,81.90
2018-04-29T02:55:48.561Z,82.00
2018-04-29T02:58:16.222Z,81.80
2018-04-29T03:00:43.859Z,81.90
2018-04-29T03:03:11.546Z,81.90
2018-04-29T03:05:39.151Z,82.00
2018-04-29T03:08:06.782Z,82.10
2018-04-29T03:10:34.440Z,82.30
2018-04-29T03:13:02.058Z,82.40
2018-04-29T03:15:29.718Z,82.40
2018-04-29T03:17:58.117Z,82.50
2018-04-29T03:20:26.534Z,82.60
2018-04-29T03:22:54.929Z,82.70
2018-04-29T03:25:23.330Z,82.80
2018-04-29T03:27:51.725Z,83.10
2018-04-29T03:30:20.346Z,83.00
2018-04-29T03:32:47.979Z,83.20
2018-04-29T03:35:15.623Z,83.40
2018-04-29T03:37:43.282Z,83.60
2018-04-29T03:40:10.925Z,83.60
2018-04-29T03:42:38.581Z,83.70
2018-04-29T03:45:07.010Z,83.90
2018-04-29T03:47:34.641Z,83.90
2018-04-29T03:50:02.294Z,84.10
2018-04-29T03:52:31.286Z,84.30
2018-04-29T03:54:59.069Z,84.40
2018-04-29T03:57:38.454Z,84.50
2018-04-29T04:00:27.880Z,84.70
2018-04-29T04:03:07.333Z,84.70
2018-04-29T04:05:35.129Z,84.70
2018-04-29T04:08:02.822Z,84.70
2018-04-29T04:10:31.543Z,84.80
2018-04-29T04:12:59.945Z,84.80
2018-04-29T04:15:28.343Z,84.90
2018-04-29T04:17:55.962Z,84.80
2018-04-29T04:20:23.601Z,85.60
2018-04-29T04:22:51.235Z,84.80
2018-04-29T04:25:19.021Z,84.80
2018-04-29T04:27:47.418Z,84.60
2018-04-29T04:30:15.854Z,84.60
2018-04-29T04:32:43.510Z,84.50
2018-04-29T04:35:11.905Z,84.70
2018-04-29T04:37:39.584Z,84.70
2018-04-29T04:40:07.281Z,84.90
2018-04-29T04:42:34.930Z,84.90
2018-04-29T04:53:51.389Z,84.60
2018-04-29T04:56:19.070Z,84.50
2018-04-29T04:58:46.765Z,84.50
2018-04-29T05:01:14.383Z,84.50
2018-04-29T05:03:42.044Z,84.60
2018-04-29T05:06:09.669Z,84.70
2018-04-29T05:08:37.353Z,84.90
2018-04-29T05:11:04.998Z,84.90
2018-04-29T05:13:32.701Z,84.90
2018-04-29T05:16:00.358Z,84.90
2018-04-29T05:18:27.990Z,84.80
2018-04-29T05:20:55.646Z,84.50
2018-04-29T05:23:23.269Z,84.60
2018-04-29T05:25:51.121Z,84.60
2018-04-29T05:28:18.765Z,84.60
2018-04-29T05:30:46.422Z,84.60
2018-04-29T05:33:14.086Z,84.50
2018-04-29T05:35:41.721Z,84.30
2018-04-29T05:38:09.363Z,84.10
2018-04-29T05:40:36.965Z,84.00
2018-04-29T05:43:04.662Z,83.70
2018-04-29T05:45:32.278Z,83.50
2018-04-29T05:47:59.947Z,83.10
2018-04-29T05:50:27.623Z,83.00
2018-04-29T05:52:55.261Z,82.80
2018-04-29T05:55:23.728Z,81.80
2018-04-29T05:57:51.358Z,81.80
2018-04-29T06:00:19.837Z,81.80
2018-04-29T06:02:47.437Z,81.80
2018-04-29T06:05:16.177Z,81.00
2018-04-29T06:07:44.006Z,80.80
2018-04-29T06:10:11.611Z,80.40
2018-04-29T06:12:39.245Z,80.00
2018-04-29T06:15:08.086Z,79.40
2018-04-29T06:17:35.711Z,78.70
2018-04-29T06:20:04.174Z,77.30
2018-04-29T06:22:31.812Z,77.30
2018-04-29T06:25:00.249Z,76.30
2018-04-29T06:27:27.870Z,76.30
2018-04-29T06:29:55.553Z,75.80
2018-04-29T06:32:23.186Z,75.20
2018-04-29T06:34:51.307Z,74.50
2018-04-29T06:37:19.727Z,73.50
2018-04-29T06:39:47.399Z,73.50
2018-04-29T06:42:15.806Z,72.50
2018-04-29T06:44:44.230Z,72.40
2018-04-29T06:47:11.858Z,72.30
2018-04-29T06:49:39.506Z,71.90
2018-04-29T06:52:07.127Z,71.70
2018-04-29T06:54:34.769Z,71.40
2018-04-29T06:57:02.421Z,71.20
2018-04-29T06:59:30.058Z,71.00
2018-04-29T07:01:57.714Z,70.70
2018-04-29T07:04:25.359Z,69.90
2018-04-29T07:06:53.772Z,68.60
2018-04-29T07:09:22.172Z,67.80
2018-04-29T07:11:49.826Z,67.70
2018-04-29T07:14:17.471Z,67.10
2018-04-29T07:16:45.113Z,66.90
2018-04-29T07:19:12.761Z,66.90
2018-04-29T07:21:41.166Z,66.00
2018-04-29T07:24:09.897Z,65.10
2018-04-29T07:26:37.518Z,65.00
2018-04-29T07:29:05.248Z,64.30
2018-04-29T07:31:33.641Z,62.80
2018-04-29T07:34:02.106Z,63.10
2018-04-29T07:36:29.729Z,62.30
2018-04-29T07:38:57.334Z,61.90
2018-04-29T07:41:25.751Z,60.90
2018-04-29T07:43:53.391Z,60.80
2018-04-29T07:46:21.131Z,60.60
2018-04-29T07:48:48.743Z,59.80
2018-04-29T07:51:16.422Z,59.60
2018-04-29T07:59:35.433Z,58.50
2018-04-29T08:02:03.094Z,58.20
2018-04-29T08:04:30.826Z,57.90
2018-04-29T08:06:58.455Z,57.40
2018-04-29T08:09:26.121Z,56.70
2018-04-29T08:11:54.570Z,56.20
2018-04-29T08:14:22.938Z,56.10
2018-04-29T08:16:50.902Z,55.50
2018-04-29T08:19:19.063Z,55.10
2018-04-29T08:21:47.542Z,55.10
2018-04-29T08:24:15.330Z,55.20
2018-04-29T08:26:43.130Z,55.30
2018-04-29T08:29:11.051Z,55.30
2018-04-29T08:31:39.161Z,54.70
2018-04-29T08:34:17.380Z,54.20
2018-04-29T08:36:46.158Z,53.80
2018-04-29T08:39:13.919Z,53.20
2018-04-29T08:41:41.986Z,52.70
2018-04-29T08:44:09.806Z,52.20
2018-04-29T08:46:37.723Z,51.90
2018-04-29T08:49:05.611Z,52.00
2018-04-29T08:51:33.361Z,51.70
2018-04-29T08:54:01.274Z,51.50
2018-04-29T08:56:29.232Z,51.10
2018-04-29T08:58:57.750Z,50.00
2018-04-29T09:01:26.385Z,49.90
2018-04-29T09:04:00.592Z,49.80
2018-04-29T09:06:28.706Z,49.60
2018-04-29T09:08:56.728Z,48.90
2018-04-29T09:11:24.575Z,49.00
2018-04-29T09:13:52.357Z,48.40
2018-04-29T09:16:20.114Z,48.40
2018-04-29T09:18:47.787Z,48.40
2018-04-29T09:21:15.449Z,49.20
2018-04-29T09:23:43.600Z,48.40
2018-04-29T09:26:11.292Z,48.20
2018-04-29T09:28:39.023Z,48.80
2018-04-29T09:34:11.923Z,48.30
2018-04-29T09:36:40.436Z,47.90
2018-04-29T09:39:08.137Z,48.00
2018-04-29T09:41:36.562Z,47.80
2018-04-29T09:44:05.061Z,47.80
2018-04-29T09:46:32.691Z,47.80
2018-04-29T09:49:01.310Z,47.60
2018-04-29T09:51:29.901Z,47.50
2018-04-29T09:53:58.347Z,47.50
2018-04-29T09:56:26.381Z,47.70
2018-04-29T09:58:54.370Z,47.50
2018-04-29T10:01:26.481Z,46.90
2018-04-29T10:03:54.624Z,46.80
2018-04-29T10:06:22.798Z,46.70
2018-04-29T10:09:01.050Z,47.20
2018-04-29T10:17:16.057Z,46.40
2018-04-29T10:19:44.587Z,46.30
2018-04-29T10:22:12.292Z,46.20
2018-04-29T10:24:40.068Z,45.90
2018-04-29T10:27:07.636Z,46.00
2018-04-29T10:29:47.991Z,46.00
2018-04-29T10:32:16.321Z,45.70
2018-04-29T10:34:44.797Z,45.00
2018-04-29T10:37:13.577Z,45.00
2018-04-29T10:39:41.550Z,44.50
2018-04-29T10:42:09.216Z,44.10
2018-04-29T10:44:37.626Z,43.80
2018-04-29T10:47:06.465Z,44.00
2018-04-29T10:49:34.370Z,43.80
2018-04-29T10:52:02.050Z,43.20
2018-04-29T10:54:30.601Z,43.40
2018-04-29T10:56:58.257Z,43.40
2018-04-29T10:59:25.915Z,43.20
2018-04-29T11:04:53.712Z,42.80
2018-04-29T11:07:22.151Z,42.80
2018-04-29T11:09:49.802Z,42.80
2018-04-29T11:12:18.297Z,42.60
2018-04-29T11:14:54.525Z,42.60
2018-04-29T11:17:22.959Z,42.10
2018-04-29T11:19:50.654Z,42.10
2018-04-29T11:22:18.306Z,42.10
2018-04-29T11:24:46.025Z,41.90
2018-04-29T11:27:13.605Z,41.80
2018-04-29T11:29:42.021Z,41.10
2018-04-29T11:32:09.642Z,41.10
2018-04-29T11:34:37.293Z,41.30
2018-04-29T11:37:04.938Z,41.30
2018-04-29T11:39:32.605Z,41.00
2018-04-29T11:42:01.493Z,40.50
2018-04-29T11:44:30.082Z,40.90
2018-04-29T11:46:57.734Z,40.80
2018-04-29T11:49:25.402Z,40.70
2018-04-29T11:51:53.063Z,40.60
2018-04-29T11:54:21.482Z,40.00
2018-04-29T11:56:49.898Z,39.60
2018-04-29T11:59:17.553Z,39.60
2018-04-29T12:01:45.183Z,39.00
2018-04-29T12:04:12.854Z,38.70
2018-04-29T12:06:41.242Z,38.10
2018-04-29T12:09:08.894Z,38.00
2018-04-29T12:11:36.531Z,36.70
2018-04-29T12:14:04.210Z,36.10
2018-04-29T12:16:31.901Z,36.00
2018-04-29T12:19:00.308Z,35.70
2018-04-29T12:21:28.738Z,35.50
2018-04-29T12:23:56.369Z,35.50
2018-04-29T12:26:24.065Z,34.70
2018-04-29T12:28:51.685Z,33.70
2018-04-29T12:31:20.086Z,32.90
2018-04-29T12:33:47.781Z,32.80
2018-04-29T12:36:15.438Z,32.70
2018-04-29T12:38:53.594Z,33.10
2018-04-29T12:41:21.226Z,32.60
2018-04-29T12:43:48.894Z,32.40
2018-04-29T12:46:16.553Z,32.10
2018-04-29T12:48:44.189Z,32.00
2018-04-29T12:51:12.626Z,32.00
2018-04-29T12:53:40.253Z,31.90
2018-04-29T12:56:07.907Z,31.70
2018-04-29T12:58:35.521Z,31.70
2018-04-29T13:01:03.228Z,31.30
2018-04-29T13:03:30.871Z,31.50
2018-04-29T13:05:58.675Z,31.50
2018-04-29T13:08:26.301Z,31.20
2018-04-29T13:10:53.935Z,31.30
2018-04-29T13:13:25.678Z,31.40
2018-04-29T13:15:54.124Z,31.00
2018-04-29T13:18:22.917Z,31.00
2018-04-29T13:20:50.546Z,31.10
2018-04-29T13:23:18.218Z,31.00
2018-04-29T13:25:45.874Z,30.20
2018-04-29T13:28:14.169Z,29.70
2018-04-29T13:30:42.565Z,29.10
2018-04-29T13:33:11.012Z,29.50
2018-04-29T13:35:38.669Z,28.90
2018-04-29T13:38:06.341Z,28.90
2018-04-29T13:40:34.737Z,29.00
2018-04-29T13:43:02.402Z,28.80
2018-04-29T13:45:30.042Z,28.90
2018-04-29T13:48:03.527Z,29.00
2018-04-29T13:50:31.158Z,29.00
2018-04-29T13:53:01.325Z,29.00
2018-04-29T13:55:29.010Z,29.00
2018-04-29T13:57:56.667Z,28.70
2018-04-29T14:00:24.361Z,28.50
2018-04-29T14:02:52.006Z,28.20
2018-04-29T14:05:19.657Z,27.90
2018-04-29T14:07:47.307Z,27.70
2018-04-29T14:13:20.286Z,28.20
2018-04-29T14:15:48.334Z,28.10
2018-04-29T14:18:15.982Z,28.30
2018-04-29T14:20:52.314Z,28.50
2018-04-29T14:23:19.973Z,28.50
2018-04-29T14:25:54.041Z,28.30
2018-04-29T14:28:22.758Z,28.20
2018-04-29T14:30:50.924Z,28.30
2018-04-29T14:33:18.941Z,28.70
2018-04-29T14:35:46.590Z,28.90
2018-04-29T14:38:14.245Z,29.10
2018-04-29T14:40:41.899Z,28.90
2018-04-29T14:43:09.561Z,28.40
2018-04-29T14:51:29.955Z,29.20
2018-04-29T14:53:57.638Z,29.30
2018-04-29T14:56:25.342Z,29.30
2018-04-29T14:58:53.113Z,29.20
2018-04-29T15:01:21.602Z,29.20
2018-04-29T15:06:47.094Z,29.80
2018-04-29T15:09:21.511Z,29.70
2018-04-29T15:11:51.612Z,29.70
2018-04-29T15:14:19.704Z,29.40
2018-04-29T15:16:47.375Z,29.10
2018-04-29T15:19:15.103Z,29.00
2018-04-29T15:21:42.727Z,28.80
2018-04-29T15:24:35.360Z,28.70
2018-04-29T15:27:02.997Z,28.40
2018-04-29T15:29:31.442Z,28.40
2018-04-29T15:31:59.074Z,28.40
2018-04-29T15:34:26.760Z,28.50
2018-04-29T15:36:54.373Z,28.60
2018-04-29T15:39:22.789Z,28.20
2018-04-29T15:41:50.473Z,28.20
2018-04-29T15:44:18.174Z,28.30
2018-04-29T15:46:45.829Z,28.30
2018-04-29T15:49:13.564Z,28.40
2018-04-29T15:51:41.220Z,28.60
2018-04-29T15:54:09.843Z,28.60
2018-04-29T15:56:37.478Z,28.60
2018-04-29T15:59:05.990Z,28.90
2018-04-29T16:01:35.431Z,29.00
2018-04-29T16:04:03.902Z,28.90
2018-04-29T16:06:31.553Z,28.90
2018-04-29T16:08:59.217Z,29.00
2018-04-29T16:11:27.623Z,28.90
2018-04-29T16:13:56.089Z,28.90
2018-04-29T16:16:23.763Z,28.90
2018-04-29T16:18:51.431Z,28.90
2018-04-29T16:21:19.113Z,28.80
2018-04-29T16:23:46.779Z,28.50
2018-04-29T16:26:14.454Z,28.60
2018-04-29T16:28:42.130Z,29.00
2018-04-29T16:31:10.158Z,29.10
2018-04-29T16:33:37.806Z,29.10
2018-04-29T16:36:05.457Z,29.40
2018-04-29T16:38:33.103Z,29.30
2018-04-29T16:41:00.767Z,28.90
2018-04-29T16:43:28.435Z,29.20
2018-04-29T16:45:56.097Z,29.90
2018-04-29T16:48:23.761Z,30.40
2018-04-29T16:50:51.406Z,30.10
2018-04-29T16:53:19.033Z,30.00
2018-04-29T16:55:46.686Z,30.00
2018-04-29T16:58:14.326Z,29.70
2018-04-29T17:00:42.727Z,29.80
2018-04-29T17:03:11.158Z,30.00
2018-04-29T17:05:38.826Z,30.00
2018-04-29T17:08:06.464Z,30.20
2018-04-29T17:10:34.132Z,30.40
2018-04-29T17:13:01.908Z,30.70
2018-04-29T17:15:30.370Z,31.70
2018-04-29T17:17:58.001Z,31.10
2018-04-29T17:20:25.647Z,31.50
2018-04-29T17:22:53.270Z,32.10
2018-04-29T17:25:20.958Z,32.10
2018-04-29T17:27:48.604Z,32.10
2018-04-29T17:30:16.249Z,33.00
2018-04-29T17:32:44.718Z,33.50
2018-04-29T17:35:12.354Z,33.50
2018-04-29T17:37:57.498Z,34.10
2018-04-29T17:40:25.135Z,34.10
2018-04-29T17:42:52.817Z,34.30
2018-04-29T17:45:20.486Z,34.50
2018-04-29T17:47:48.890Z,34.40
2018-04-29T17:50:17.089Z,34.40
2018-04-29T17:52:44.744Z,34.30
2018-04-29T17:55:12.389Z,35.20
2018-04-29T17:57:40.022Z,34.80
2018-04-29T18:00:07.695Z,35.10
2018-04-29T18:02:35.358Z,35.40
2018-04-29T18:05:03.027Z,35.70
2018-04-29T18:07:30.690Z,36.10
2018-04-29T18:09:59.073Z,36.80
2018-04-29T18:12:26.777Z,36.70
2018-04-29T18:14:54.422Z,36.70
2018-04-29T18:17:22.094Z,37.10
2018-04-29T18:19:49.849Z,37.50
2018-04-29T18:22:17.590Z,37.50
2018-04-29T18:24:45.242Z,37.80
2018-04-29T18:27:13.790Z,38.10
2018-04-29T18:29:41.444Z,38.10
2018-04-29T18:32:20.891Z,38.60
2018-04-29T18:34:48.574Z,39.10
2018-04-29T18:37:16.221Z,39.40
2018-04-29T18:39:43.895Z,39.80
2018-04-29T18:42:12.287Z,40.30
2018-04-29T18:44:39.975Z,40.30
2018-04-29T18:47:07.598Z,40.50
2018-04-29T18:49:36.006Z,40.80
2018-04-29T18:52:04.457Z,40.70
2018-04-29T18:54:32.106Z,40.80
2018-04-29T18:57:00.538Z,40.90
2018-04-29T18:59:28.254Z,40.90
2018-04-29T19:01:55.913Z,41.10
2018-04-29T19:04:23.590Z,41.50
2018-04-29T19:06:51.229Z,42.10
2018-04-29T19:09:18.920Z,42.70
2018-04-29T19:11:46.986Z,43.60
2018-04-29T19:14:14.759Z,43.80
2018-04-29T19:16:42.401Z,44.70
2018-04-29T19:19:10.054Z,45.20
2018-04-29T19:21:37.724Z,45.70
2018-04-29T19:24:05.442Z,46.10
2018-04-29T19:26:33.078Z,46.80
2018-04-29T19:29:01.465Z,47.70
2018-04-29T19:31:29.945Z,48.20
2018-04-29T19:34:03.785Z,47.70
2018-04-29T19:36:31.425Z,48.30
2018-04-29T19:38:59.797Z,48.90
2018-04-29T19:41:27.910Z,48.90
2018-04-29T19:43:55.633Z,49.10
2018-04-29T19:46:46.209Z,49.50
2018-04-29T19:49:13.877Z,49.70
2018-04-29T19:51:47.510Z,50.70
2018-04-29T19:54:15.373Z,50.80
2018-04-29T19:56:43.918Z,50.60
2018-04-29T19:59:12.366Z,50.90
2018-04-29T20:01:40.090Z,50.90
2018-04-29T20:04:07.907Z,51.20
2018-04-29T20:06:35.537Z,51.30
2018-04-29T20:09:03.271Z,51.20
2018-04-29T20:11:31.049Z,51.40
2018-04-29T20:13:58.712Z,51.40
2018-04-29T20:16:27.097Z,51.80
2018-04-29T20:21:58.435Z,52.00
2018-04-29T20:24:26.131Z,52.10
2018-04-29T20:26:53.761Z,52.40
2018-04-29T20:29:26.570Z,52.70
2018-04-29T20:31:54.373Z,52.90
2018-04-29T20:34:22.023Z,52.60
2018-04-29T20:36:49.706Z,52.30
2018-04-29T20:39:17.350Z,52.50
2018-04-29T20:41:45.039Z,52.70
2018-04-29T20:44:12.663Z,52.50
2018-04-29T20:46:40.318Z,52.50
2018-04-29T20:49:07.952Z,52.70
2018-04-29T20:51:35.605Z,52.70
2018-04-29T20:54:03.246Z,53.10
2018-04-29T20:56:31.674Z,53.70
2018-04-29T20:58:59.356Z,53.60
2018-04-29T21:01:28.096Z,53.80
2018-04-29T21:07:05.117Z,53.80
2018-04-29T21:09:33.258Z,53.80
2018-04-29T21:12:00.913Z,54.10
2018-04-29T21:14:29.669Z,54.60
2018-04-29T21:16:57.354Z,54.50
2018-04-29T21:19:25.002Z,54.40
2018-04-29T21:21:52.676Z,54.40
2018-04-29T21:24:20.410Z,54.30
2018-04-29T21:26:48.457Z,54.40
2018-04-29T21:29:17.154Z,54.50
2018-04-29T21:31:45.253Z,54.80
2018-04-29T21:34:13.884Z,55.10
2018-04-29T21:36:42.287Z,55.30
2018-04-29T21:39:09.941Z,55.20
2018-04-29T21:41:37.567Z,55.30
2018-04-29T21:44:06.010Z,55.70
2018-04-29T21:46:33.666Z,55.70
2018-04-29T21:49:02.066Z,55.90
2018-04-29T21:51:30.485Z,56.10
2018-04-29T21:53:58.109Z,56.10
2018-04-29T21:56:25.762Z,56.20
2018-04-29T21:59:14.568Z,56.40
2018-04-29T22:01:42.258Z,56.40
2018-04-29T22:04:09.978Z,56.50
2018-04-29T22:06:37.616Z,56.70
2018-04-29T22:09:05.614Z,56.80
2018-04-29T22:11:33.249Z,57.00
2018-04-29T22:14:00.925Z,57.10
2018-04-29T22:16:29.309Z,57.60
2018-04-29T22:18:56.974Z,57.50
2018-04-29T22:21:24.609Z,57.50
2018-04-29T22:23:52.270Z,57.50
2018-04-29T22:26:19.917Z,57.70
2018-04-29T22:28:47.817Z,58.00
2018-04-29T22:31:16.873Z,58.20
2018-04-29T22:33:44.525Z,58.10
2018-04-29T22:36:12.230Z,58.40
2018-04-29T22:38:40.655Z,58.60
2018-04-29T22:41:08.320Z,58.50
2018-04-29T22:43:36.709Z,59.40
2018-04-29T22:46:04.361Z,59.00
2018-04-29T22:48:32.005Z,59.20
2018-04-29T22:51:00.427Z,59.60
2018-04-29T22:53:28.100Z,59.60
2018-04-29T22:55:55.721Z,59.90
2018-04-29T22:58:23.447Z,59.80
2018-04-29T23:00:51.149Z,60.00
2018-04-29T23:03:18.790Z,60.10
2018-04-29T23:05:46.395Z,60.10
2018-04-29T23:08:14.086Z,60.10
2018-04-29T23:10:43.088Z,60.10
2018-04-29T23:13:10.723Z,59.90
2018-04-29T23:15:38.482Z,59.50
2018-04-29T23:18:06.178Z,59.20
2018-04-29T23:20:33.805Z,58.70
2018-04-29T23:23:02.250Z,57.90
2018-04-29T23:25:29.898Z,57.80
2018-04-29T23:27:58.314Z,57.50
2018-04-29T23:44:53.561Z,56.00
2018-04-29T23:47:21.232Z,55.60
2018-04-29T23:49:48.894Z,55.50
2018-04-29T23:52:16.533Z,55.40
2018-04-29T23:54:44.949Z,55.60
2018-04-29T23:57:13.361Z,54.90
2018-04-29T23:59:41.799Z,54.70
